createdAt,value
2022-08-27T00:01:23.809Z,20.09
2022-08-27T00:03:51.001Z,20.08
2022-08-27T00:06:19.751Z,20.01
2022-08-27T00:08:48.240Z,20.08
2022-08-27T00:11:17.519Z,20.10
2022-08-27T00:13:45.007Z,20.05
2022-08-27T00:16:16.423Z,20.05
2022-08-27T00:18:47.884Z,20.00
2022-08-27T00:21:16.377Z,19.99
2022-08-27T00:23:43.846Z,20.02
2022-08-27T00:26:10.784Z,19.96
2022-08-27T00:28:38.323Z,19.91
2022-08-27T00:31:05.573Z,19.89
2022-08-27T00:33:32.468Z,19.90
2022-08-27T00:35:59.791Z,19.93
2022-08-27T00:38:27.470Z,19.85
2022-08-27T00:40:55.472Z,19.90
2022-08-27T00:43:28.704Z,19.84
2022-08-27T00:46:02.252Z,19.87
2022-08-27T00:48:32.519Z,19.89
2022-08-27T00:50:59.549Z,19.94
2022-08-27T00:53:30.313Z,19.84
2022-08-27T00:56:02.686Z,19.97
2022-08-27T00:58:33.223Z,19.98
2022-08-27T01:01:01.284Z,19.88
2022-08-27T01:03:28.551Z,19.81
2022-08-27T01:05:58.860Z,19.82
2022-08-27T01:08:29.504Z,19.83
2022-08-27T01:10:58.612Z,19.72
2022-08-27T01:13:58.724Z,19.75
2022-08-27T01:16:19.965Z,19.70
2022-08-27T01:18:47.699Z,19.75
2022-08-27T01:21:23.772Z,19.72
2022-08-27T01:23:59.608Z,19.68
2022-08-27T01:26:26.785Z,19.65
2022-08-27T01:28:53.793Z,19.68
2022-08-27T01:31:21.239Z,19.64
2022-08-27T01:34:04.678Z,19.63
2022-08-27T01:36:32.129Z,19.61
2022-08-27T01:38:59.070Z,19.60
2022-08-27T01:41:26.073Z,19.56
2022-08-27T01:43:53.946Z,19.65
2022-08-27T01:46:25.398Z,19.56
2022-08-27T01:48:57.100Z,19.49
2022-08-27T01:51:24.152Z,19.49
2022-08-27T01:53:51.287Z,19.56
2022-08-27T01:56:18.437Z,19.47
2022-08-27T01:58:48.555Z,19.48
2022-08-27T02:01:18.738Z,19.46
2022-08-27T02:03:47.547Z,19.43
2022-08-27T02:06:15.036Z,19.34
2022-08-27T02:08:43.233Z,19.27
2022-08-27T02:11:10.406Z,19.31
2022-08-27T02:13:40.291Z,19.28
2022-08-27T02:16:10.240Z,19.29
2022-08-27T02:18:41.790Z,19.19
2022-08-27T02:21:09.644Z,19.31
2022-08-27T02:23:36.681Z,19.20
2022-08-27T02:26:04.393Z,19.18
2022-08-27T02:28:31.318Z,19.08
2022-08-27T02:30:58.218Z,19.16
2022-08-27T02:33:25.334Z,19.13
2022-08-27T02:35:52.697Z,19.06
2022-08-27T02:38:21.042Z,18.95
2022-08-27T02:40:47.911Z,18.89
2022-08-27T02:43:15.895Z,18.96
2022-08-27T02:45:46.278Z,19.00
2022-08-27T02:48:13.304Z,19.08
2022-08-27T02:50:41.267Z,19.15
2022-08-27T02:53:08.337Z,19.04
2022-08-27T02:55:38.097Z,19.08
2022-08-27T02:58:08.837Z,19.04
2022-08-27T03:00:36.335Z,19.10
2022-08-27T03:03:03.245Z,19.07
2022-08-27T03:05:30.308Z,19.01
2022-08-27T03:07:59.566Z,19.01
2022-08-27T03:10:26.455Z,19.02
2022-08-27T03:12:53.599Z,19.09
2022-08-27T03:15:20.760Z,19.07
2022-08-27T03:18:06.634Z,19.12
2022-08-27T03:20:34.362Z,19.11
2022-08-27T03:23:04.403Z,19.06
2022-08-27T03:25:32.292Z,19.18
2022-08-27T03:28:00.048Z,19.09
2022-08-27T03:30:31.453Z,19.03
2022-08-27T03:33:01.065Z,19.05
2022-08-27T03:35:28.026Z,19.05
2022-08-27T03:37:56.956Z,19.03
2022-08-27T03:40:24.366Z,19.04
2022-08-27T03:42:54.300Z,19.03
2022-08-27T03:45:21.345Z,19.03
2022-08-27T03:47:48.341Z,19.13
2022-08-27T03:50:15.270Z,19.10
2022-08-27T03:52:42.313Z,19.08
2022-08-27T03:55:10.072Z,19.04
2022-08-27T03:57:37.701Z,19.11
2022-08-27T04:00:11.103Z,19.13
2022-08-27T04:02:44.029Z,19.12
2022-08-27T04:05:12.658Z,19.19
2022-08-27T04:07:43.472Z,19.04
2022-08-27T04:10:12.790Z,19.01
2022-08-27T04:12:40.244Z,19.03
2022-08-27T04:15:11.578Z,19.06
2022-08-27T04:17:39.485Z,19.03
2022-08-27T04:20:34.086Z,19.01
2022-08-27T04:22:56.022Z,19.05
2022-08-27T04:25:22.905Z,19.03
2022-08-27T04:27:49.886Z,19.00
2022-08-27T04:30:17.110Z,18.97
2022-08-27T04:32:45.902Z,18.96
2022-08-27T04:35:12.797Z,18.96
2022-08-27T04:37:40.494Z,18.97
2022-08-27T04:40:13.248Z,18.98
2022-08-27T04:42:40.256Z,18.98
2022-08-27T04:45:07.675Z,19.14
2022-08-27T04:47:35.269Z,19.03
2022-08-27T04:50:05.641Z,18.94
2022-08-27T04:52:32.805Z,18.94
2022-08-27T04:55:00.127Z,18.96
2022-08-27T04:57:26.977Z,18.94
2022-08-27T04:59:58.088Z,19.02
2022-08-27T05:02:25.947Z,18.94
2022-08-27T05:04:52.994Z,18.86
2022-08-27T05:07:20.608Z,18.96
2022-08-27T05:09:47.526Z,18.92
2022-08-27T05:12:14.430Z,18.93
2022-08-27T05:14:41.464Z,18.87
2022-08-27T05:17:08.353Z,18.86
2022-08-27T05:19:35.302Z,18.86
2022-08-27T05:22:02.300Z,18.84
2022-08-27T05:24:32.604Z,18.80
2022-08-27T05:27:02.430Z,18.82
2022-08-27T05:29:29.341Z,18.89
2022-08-27T05:31:56.631Z,18.85
2022-08-27T05:34:26.416Z,18.82
2022-08-27T05:36:54.987Z,18.73
2022-08-27T05:39:22.428Z,18.80
2022-08-27T05:41:49.313Z,18.72
2022-08-27T05:44:40.691Z,18.70
2022-08-27T05:47:04.759Z,18.72
2022-08-27T05:49:32.022Z,18.76
2022-08-27T05:51:58.964Z,18.80
2022-08-27T05:54:28.498Z,18.73
2022-08-27T05:56:58.354Z,18.65
2022-08-27T05:59:44.004Z,18.74
2022-08-27T06:02:11.229Z,18.70
2022-08-27T06:04:38.176Z,18.77
2022-08-27T06:07:06.749Z,18.79
2022-08-27T06:09:34.918Z,18.79
2022-08-27T06:12:02.602Z,18.80
2022-08-27T06:14:30.522Z,18.81
2022-08-27T06:17:00.823Z,18.72
2022-08-27T06:19:27.898Z,18.72
2022-08-27T06:22:01.319Z,18.78
2022-08-27T06:24:39.734Z,18.78
2022-08-27T06:27:06.745Z,18.75
2022-08-27T06:29:36.632Z,18.82
2022-08-27T06:32:03.889Z,18.81
2022-08-27T06:34:30.796Z,18.82
2022-08-27T06:36:57.702Z,18.93
2022-08-27T06:39:27.273Z,18.98
2022-08-27T06:41:55.137Z,18.88
2022-08-27T06:44:24.500Z,18.95
2022-08-27T06:46:51.981Z,19.00
2022-08-27T06:49:21.813Z,18.91
2022-08-27T06:51:49.184Z,18.91
2022-08-27T06:54:18.573Z,18.75
2022-08-27T06:56:45.453Z,18.84
2022-08-27T06:59:15.687Z,18.98
2022-08-27T07:01:45.772Z,18.91
2022-08-27T07:04:18.575Z,18.94
2022-08-27T07:06:48.116Z,18.87
2022-08-27T07:09:15.626Z,18.84
2022-08-27T07:11:43.159Z,18.81
2022-08-27T07:14:10.482Z,18.92
2022-08-27T07:16:40.941Z,18.89
2022-08-27T07:19:08.041Z,18.89
2022-08-27T07:21:36.196Z,18.97
2022-08-27T07:24:05.564Z,19.00
2022-08-27T07:26:36.009Z,18.99
2022-08-27T07:29:08.452Z,19.12
2022-08-27T07:31:36.184Z,19.08
2022-08-27T07:34:04.339Z,19.18
2022-08-27T07:36:31.655Z,19.07
2022-08-27T07:39:01.547Z,19.03
2022-08-27T07:41:31.805Z,19.03
2022-08-27T07:44:21.104Z,19.06
2022-08-27T07:46:59.161Z,19.12
2022-08-27T07:49:28.784Z,19.07
2022-08-27T07:51:55.848Z,19.19
2022-08-27T07:54:23.484Z,19.18
2022-08-27T07:56:56.244Z,19.32
2022-08-27T07:59:25.154Z,19.22
2022-08-27T08:01:56.635Z,19.14
2022-08-27T08:04:24.279Z,19.22
2022-08-27T08:06:52.300Z,19.33
2022-08-27T08:09:22.425Z,19.28
2022-08-27T08:11:52.377Z,19.39
2022-08-27T08:14:19.367Z,19.32
2022-08-27T08:16:46.678Z,19.43
2022-08-27T08:19:13.589Z,19.59
2022-08-27T08:21:40.637Z,19.63
2022-08-27T08:24:07.656Z,19.67
2022-08-27T08:26:34.653Z,19.70
2022-08-27T08:29:04.931Z,19.73
2022-08-27T08:31:34.982Z,19.80
2022-08-27T08:34:01.872Z,19.72
2022-08-27T08:36:28.917Z,19.65
2022-08-27T08:38:55.787Z,19.82
2022-08-27T08:41:22.612Z,19.94
2022-08-27T08:43:51.912Z,19.90
2022-08-27T08:46:44.380Z,20.21
2022-08-27T08:49:26.997Z,20.21
2022-08-27T08:51:59.324Z,20.03
2022-08-27T08:54:32.539Z,20.24
2022-08-27T08:57:19.126Z,20.25
2022-08-27T08:59:56.655Z,20.40
2022-08-27T09:02:23.614Z,20.42
2022-08-27T09:04:54.181Z,20.49
2022-08-27T09:07:27.247Z,20.98
2022-08-27T09:10:06.157Z,21.18
2022-08-27T09:12:33.864Z,20.75
2022-08-27T09:15:30.511Z,20.96
2022-08-27T09:18:17.433Z,20.96
2022-08-27T09:20:54.881Z,20.92
2022-08-27T09:23:35.215Z,20.84
2022-08-27T09:26:02.053Z,21.24
2022-08-27T09:28:51.639Z,21.22
2022-08-27T09:31:21.276Z,20.87
2022-08-27T09:33:56.588Z,20.79
2022-08-27T09:36:25.433Z,20.90
2022-08-27T09:39:08.608Z,21.15
2022-08-27T09:41:45.491Z,21.14
2022-08-27T09:44:14.954Z,21.47
2022-08-27T09:47:05.873Z,21.97
2022-08-27T09:49:36.840Z,21.55
2022-08-27T09:52:04.569Z,21.78
2022-08-27T09:54:31.999Z,21.88
2022-08-27T09:56:59.473Z,21.58
2022-08-27T09:59:36.048Z,21.74
2022-08-27T10:02:06.696Z,22.05
2022-08-27T10:04:51.874Z,21.62
2022-08-27T10:07:22.658Z,22.07
2022-08-27T10:10:00.963Z,22.02
2022-08-27T10:12:37.130Z,21.82
2022-08-27T10:15:07.162Z,21.69
2022-08-27T10:17:56.484Z,21.87
2022-08-27T10:20:52.645Z,21.42
2022-08-27T10:23:36.686Z,21.56
2022-08-27T10:26:17.556Z,21.50
2022-08-27T10:29:00.344Z,21.62
2022-08-27T10:31:39.337Z,21.82
2022-08-27T10:34:12.342Z,21.69
2022-08-27T10:36:39.473Z,21.70
2022-08-27T10:39:46.020Z,22.07
2022-08-27T10:42:18.993Z,21.92
2022-08-27T10:45:05.081Z,22.10
2022-08-27T10:47:55.029Z,22.06
2022-08-27T10:50:29.280Z,21.80
2022-08-27T10:53:08.760Z,22.04
2022-08-27T10:55:46.112Z,22.12
2022-08-27T10:58:45.846Z,21.98
2022-08-27T11:01:18.544Z,21.59
2022-08-27T11:03:51.806Z,21.70
2022-08-27T11:06:18.681Z,21.90
2022-08-27T11:08:52.175Z,22.05
2022-08-27T11:14:57.065Z,22.33
2022-08-27T11:17:40.020Z,22.32
2022-08-27T11:20:21.045Z,22.14
2022-08-27T11:23:09.118Z,22.35
2022-08-27T11:25:44.051Z,22.14
2022-08-27T11:28:11.871Z,22.55
2022-08-27T11:30:57.986Z,22.79
2022-08-27T11:33:33.451Z,23.03
2022-08-27T11:36:09.337Z,23.19
2022-08-27T11:39:06.019Z,23.03
2022-08-27T11:41:45.468Z,23.26
2022-08-27T11:44:15.409Z,24.31
2022-08-27T11:46:55.210Z,24.23
2022-08-27T11:49:29.183Z,24.52
2022-08-27T11:52:00.254Z,24.18
2022-08-27T11:54:42.911Z,23.96
2022-08-27T11:57:16.273Z,24.20
2022-08-27T11:59:46.108Z,24.66
2022-08-27T12:02:25.326Z,24.88
2022-08-27T12:04:55.558Z,25.06
2022-08-27T12:07:30.958Z,24.47
2022-08-27T12:10:51.858Z,24.60
2022-08-27T12:13:34.793Z,24.23
2022-08-27T12:16:16.509Z,24.01
2022-08-27T12:18:54.087Z,24.94
2022-08-27T12:21:30.123Z,24.36
2022-08-27T12:24:36.597Z,23.84
2022-08-27T12:27:36.140Z,23.61
2022-08-27T12:30:18.451Z,23.67
2022-08-27T12:32:52.709Z,24.20
2022-08-27T12:35:33.136Z,24.35
2022-08-27T12:38:23.823Z,24.37
2022-08-27T12:40:53.015Z,24.09
2022-08-27T12:43:22.891Z,25.18
2022-08-27T12:45:52.606Z,25.21
2022-08-27T12:48:23.296Z,24.84
2022-08-27T12:51:02.751Z,25.21
2022-08-27T12:53:35.838Z,25.35
2022-08-27T12:56:18.031Z,25.05
2022-08-27T12:59:08.217Z,25.07
2022-08-27T13:02:16.471Z,24.33
2022-08-27T13:04:44.187Z,24.42
2022-08-27T13:07:11.064Z,24.27
2022-08-27T13:09:42.601Z,24.30
2022-08-27T13:12:17.682Z,24.51
2022-08-27T13:14:44.752Z,24.77
2022-08-27T13:17:18.777Z,24.75
2022-08-27T13:20:26.259Z,24.27
2022-08-27T13:22:54.078Z,24.05
2022-08-27T13:25:23.905Z,24.06
2022-08-27T13:27:54.225Z,24.51
2022-08-27T13:30:35.053Z,24.69
2022-08-27T13:33:06.083Z,23.84
2022-08-27T13:35:33.978Z,23.69
2022-08-27T13:38:03.669Z,24.17
2022-08-27T13:40:34.773Z,24.28
2022-08-27T13:43:09.188Z,23.91
2022-08-27T13:45:39.135Z,23.81
2022-08-27T13:48:06.901Z,24.24
2022-08-27T13:50:35.255Z,23.92
2022-08-27T13:53:25.784Z,23.82
2022-08-27T13:55:53.686Z,23.86
2022-08-27T13:58:28.848Z,23.77
2022-08-27T14:01:23.828Z,23.16
2022-08-27T14:03:58.837Z,23.12
2022-08-27T14:06:31.529Z,23.44
2022-08-27T14:09:22.385Z,23.85
2022-08-27T14:11:49.841Z,23.35
2022-08-27T14:14:21.326Z,23.71
2022-08-27T14:16:57.721Z,23.98
2022-08-27T14:19:36.549Z,24.03
2022-08-27T14:22:05.407Z,23.75
2022-08-27T14:24:32.314Z,23.35
2022-08-27T14:27:12.565Z,23.33
2022-08-27T14:29:39.502Z,23.29
2022-08-27T14:32:07.813Z,23.33
2022-08-27T14:34:35.515Z,23.32
2022-08-27T14:37:04.092Z,23.24
2022-08-27T14:39:31.640Z,23.73
2022-08-27T14:42:01.035Z,23.62
2022-08-27T14:44:28.009Z,23.48
2022-08-27T14:46:56.647Z,23.41
2022-08-27T14:49:36.536Z,23.11
2022-08-27T14:52:06.079Z,23.35
2022-08-27T14:54:33.755Z,23.36
2022-08-27T14:57:02.977Z,23.23
2022-08-27T14:59:30.359Z,23.12
2022-08-27T15:01:58.961Z,23.10
2022-08-27T15:04:26.931Z,23.10
2022-08-27T15:06:56.195Z,23.36
2022-08-27T15:09:23.234Z,23.13
2022-08-27T15:11:51.377Z,23.35
2022-08-27T15:14:27.368Z,23.17
2022-08-27T15:16:54.913Z,23.05
2022-08-27T15:19:24.103Z,22.97
2022-08-27T15:21:53.059Z,23.30
2022-08-27T15:24:27.104Z,23.19
2022-08-27T15:26:58.174Z,23.30
2022-08-27T15:29:26.888Z,23.18
2022-08-27T15:31:54.327Z,23.25
2022-08-27T15:34:21.293Z,23.40
2022-08-27T15:36:51.414Z,23.31
2022-08-27T15:39:18.267Z,23.30
2022-08-27T15:42:05.303Z,23.19
2022-08-27T15:44:32.223Z,22.93
2022-08-27T15:46:59.262Z,22.91
2022-08-27T15:49:26.184Z,23.08
2022-08-27T15:51:53.077Z,22.93
2022-08-27T15:54:22.217Z,22.97
2022-08-27T15:56:49.077Z,22.84
2022-08-27T15:59:18.862Z,22.81
2022-08-27T16:01:59.183Z,22.95
2022-08-27T16:04:26.948Z,22.77
2022-08-27T16:06:58.141Z,23.03
2022-08-27T16:09:25.011Z,22.96
2022-08-27T16:11:51.876Z,23.00
2022-08-27T16:14:18.707Z,23.12
2022-08-27T16:16:47.478Z,22.73
2022-08-27T16:19:16.755Z,22.77
2022-08-27T16:21:43.920Z,22.53
2022-08-27T16:24:10.997Z,22.80
2022-08-27T16:26:38.656Z,22.56
2022-08-27T16:29:06.072Z,22.60
2022-08-27T16:31:35.056Z,22.61
2022-08-27T16:34:03.232Z,22.51
2022-08-27T16:36:30.827Z,22.33
2022-08-27T16:38:57.767Z,22.23
2022-08-27T16:41:24.844Z,22.33
2022-08-27T16:43:51.760Z,22.36
2022-08-27T16:46:18.670Z,22.33
2022-08-27T16:49:04.111Z,22.20
2022-08-27T16:51:35.245Z,22.10
2022-08-27T16:54:03.815Z,22.15
2022-08-27T16:56:32.822Z,22.24
2022-08-27T16:59:04.674Z,22.06
2022-08-27T17:01:31.881Z,21.91
2022-08-27T17:04:14.523Z,21.77
2022-08-27T17:06:45.572Z,21.74
2022-08-27T17:09:13.524Z,21.67
2022-08-27T17:11:42.953Z,21.61
2022-08-27T17:14:13.665Z,21.59
2022-08-27T17:16:44.113Z,21.60
2022-08-27T17:19:16.673Z,21.64
2022-08-27T17:21:45.363Z,21.52
2022-08-27T17:24:13.029Z,21.29
2022-08-27T17:26:43.280Z,21.35
2022-08-27T17:29:10.144Z,21.34
2022-08-27T17:31:40.590Z,21.29
2022-08-27T17:34:14.915Z,21.12
2022-08-27T17:36:44.365Z,21.16
2022-08-27T17:39:12.534Z,21.17
2022-08-27T17:41:44.130Z,21.12
2022-08-27T17:44:14.093Z,21.01
2022-08-27T17:46:41.092Z,20.93
2022-08-27T17:49:07.948Z,20.95
2022-08-27T17:51:36.163Z,20.97
2022-08-27T17:54:06.066Z,20.89
2022-08-27T17:56:32.959Z,20.85
2022-08-27T17:58:59.887Z,20.86
2022-08-27T18:01:32.366Z,20.82
2022-08-27T18:03:59.857Z,20.78
2022-08-27T18:06:28.171Z,20.72
2022-08-27T18:08:55.212Z,20.72
2022-08-27T18:11:22.302Z,20.65
2022-08-27T18:13:56.804Z,20.52
2022-08-27T18:16:28.606Z,20.53
2022-08-27T18:18:55.475Z,20.31
2022-08-27T18:21:25.423Z,20.41
2022-08-27T18:23:53.698Z,20.29
2022-08-27T18:26:23.288Z,20.28
2022-08-27T18:28:50.346Z,20.16
2022-08-27T18:31:19.993Z,20.21
2022-08-27T18:33:46.996Z,20.19
2022-08-27T18:36:15.066Z,20.13
2022-08-27T18:38:42.057Z,20.00
2022-08-27T18:41:09.531Z,20.14
2022-08-27T18:43:36.627Z,20.00
2022-08-27T18:46:05.734Z,19.90
2022-08-27T18:48:38.203Z,19.91
2022-08-27T18:51:07.898Z,19.82
2022-08-27T18:53:37.005Z,19.78
2022-08-27T18:56:05.176Z,19.79
2022-08-27T18:58:32.349Z,19.68
2022-08-27T19:01:01.995Z,19.63
2022-08-27T19:03:36.290Z,19.59
2022-08-27T19:06:07.920Z,19.42
2022-08-27T19:08:36.374Z,19.49
2022-08-27T19:11:03.635Z,19.41
2022-08-27T19:13:31.454Z,19.65
2022-08-27T19:16:02.832Z,19.46
2022-08-27T19:18:35.671Z,19.43
2022-08-27T19:21:02.568Z,19.40
2022-08-27T19:23:32.547Z,19.39
2022-08-27T19:26:00.272Z,19.38
2022-08-27T19:28:37.689Z,19.24
2022-08-27T19:31:05.087Z,19.29
2022-08-27T19:33:31.947Z,19.34
2022-08-27T19:35:59.123Z,19.09
2022-08-27T19:38:31.914Z,19.04
2022-08-27T19:41:03.348Z,18.92
2022-08-27T19:43:31.207Z,18.85
2022-08-27T19:46:02.661Z,19.21
2022-08-27T19:48:32.066Z,19.15
2022-08-27T19:50:59.347Z,19.04
2022-08-27T19:53:26.352Z,18.95
2022-08-27T19:55:53.425Z,19.09
2022-08-27T19:58:20.954Z,19.04
2022-08-27T20:00:48.210Z,19.14
2022-08-27T20:03:15.570Z,19.20
2022-08-27T20:05:48.279Z,19.08
2022-08-27T20:08:15.140Z,19.00
2022-08-27T20:10:45.537Z,18.88
2022-08-27T20:13:12.394Z,19.01
2022-08-27T20:15:40.607Z,18.94
2022-08-27T20:18:08.879Z,19.01
2022-08-27T20:20:36.031Z,18.97
2022-08-27T20:23:05.277Z,18.79
2022-08-27T20:25:35.135Z,18.66
2022-08-27T20:28:16.433Z,18.75
2022-08-27T20:30:49.211Z,18.63
2022-08-27T20:33:17.005Z,18.72
2022-08-27T20:35:44.677Z,18.73
2022-08-27T20:38:11.760Z,18.85
2022-08-27T20:40:38.884Z,18.97
2022-08-27T20:43:05.883Z,18.99
2022-08-27T20:45:32.806Z,18.97
2022-08-27T20:47:59.792Z,18.96
2022-08-27T20:50:27.238Z,18.94
2022-08-27T20:52:54.191Z,18.91
2022-08-27T20:55:23.764Z,18.80
2022-08-27T20:58:10.302Z,18.81
2022-08-27T21:00:40.715Z,18.65
2022-08-27T21:03:09.930Z,18.61
2022-08-27T21:05:36.974Z,18.52
2022-08-27T21:08:06.250Z,18.52
2022-08-27T21:10:34.882Z,18.74
2022-08-27T21:13:04.728Z,18.58
2022-08-27T21:15:32.652Z,18.43
2022-08-27T21:17:59.581Z,18.55
2022-08-27T21:20:26.709Z,18.75
2022-08-27T21:22:53.631Z,18.74
2022-08-27T21:25:25.388Z,18.84
2022-08-27T21:27:53.333Z,18.67
2022-08-27T21:30:24.829Z,18.66
2022-08-27T21:32:55.844Z,18.58
2022-08-27T21:35:27.509Z,18.53
2022-08-27T21:37:56.091Z,18.48
2022-08-27T21:40:28.458Z,18.44
2022-08-27T21:42:56.998Z,18.43
2022-08-27T21:45:26.912Z,18.39
2022-08-27T21:47:54.349Z,18.44
2022-08-27T21:50:28.123Z,18.57
2022-08-27T21:52:55.090Z,18.72
2022-08-27T21:55:22.201Z,18.70
2022-08-27T21:57:49.212Z,18.73
2022-08-27T22:00:28.909Z,18.72
2022-08-27T22:02:59.855Z,18.74
2022-08-27T22:05:26.789Z,18.73
2022-08-27T22:07:53.655Z,18.79
2022-08-27T22:10:20.716Z,18.71
2022-08-27T22:12:47.586Z,18.70
2022-08-27T22:15:14.494Z,18.67
2022-08-27T22:17:41.423Z,18.57
2022-08-27T22:20:09.631Z,18.60
2022-08-27T22:22:36.597Z,18.54
2022-08-27T22:25:04.776Z,18.56
2022-08-27T22:27:31.880Z,18.70
2022-08-27T22:29:58.858Z,18.63
2022-08-27T22:32:26.058Z,18.51
2022-08-27T22:34:52.947Z,18.50
2022-08-27T22:37:19.911Z,18.41
2022-08-27T22:39:49.845Z,18.62
2022-08-27T22:42:18.260Z,18.70
2022-08-27T22:44:45.309Z,18.56
2022-08-27T22:47:14.544Z,18.56
2022-08-27T22:49:42.537Z,18.58
2022-08-27T22:52:09.929Z,18.47
2022-08-27T22:54:36.872Z,18.55
2022-08-27T22:57:03.833Z,18.44
2022-08-27T22:59:30.805Z,18.52
2022-08-27T23:01:58.564Z,18.60
2022-08-27T23:04:44.958Z,18.54
2022-08-27T23:07:12.663Z,18.59
2022-08-27T23:09:39.535Z,18.64
2022-08-27T23:12:08.982Z,18.63
2022-08-27T23:14:36.024Z,18.71
2022-08-27T23:17:03.021Z,18.66
2022-08-27T23:19:32.810Z,18.56
2022-08-27T23:22:00.368Z,18.61
2022-08-27T23:24:27.356Z,18.67
2022-08-27T23:27:12.867Z,18.62
2022-08-27T23:29:39.791Z,18.63
2022-08-27T23:32:06.740Z,18.62
2022-08-27T23:34:34.217Z,18.62
2022-08-27T23:37:01.157Z,18.64
2022-08-27T23:39:28.045Z,18.69
2022-08-27T23:41:55.724Z,18.63
2022-08-27T23:44:22.669Z,18.60
2022-08-27T23:46:50.556Z,18.66
2022-08-27T23:49:17.562Z,18.65
2022-08-27T23:51:44.479Z,18.67
2022-08-27T23:54:11.357Z,18.64
2022-08-27T23:56:41.128Z,18.52
2022-08-27T23:59:08.266Z,18.56
